<?xml version="1.0" encoding="utf-8"?>
<gpx xmlns:xsi="http://www.w3.org/2001/XMLSchema-instance" xmlns:xsd="http://www.w3.org/2001/XMLSchema" version="1.1" creator="Shapelink.com" xmlns="http://www.topografix.com/GPX/1/1" xmlns:gpxtpx="http://www.garmin.com/xmlschemas/TrackPointExtension/v1">
  <metadata>
    <name>Promenad 3.64 km, 2017-03-06</name>
    <desc></desc>
    <author><name>Morten Hedlund</name></author> 
    <time>2017-03-06T13:43:24Z</time>
  </metadata>
  <trk>
    <name>Promenad 3.64 km, 2017-03-06</name>
    <trkseg>
      <trkpt lat="59.026922805634" lon="12.224176957773">
        <ele>109.4</ele>
        <time>2017-03-06T13:43:24Z</time>
      </trkpt>
      <trkpt lat="59.026741840413" lon="12.224158014679">
        <ele>108.6</ele>
        <time>2017-03-06T13:43:37Z</time>
      </trkpt>
      <trkpt lat="59.026551403645" lon="12.224198415437">
        <ele>107.8</ele>
        <time>2017-03-06T13:43:50Z</time>
      </trkpt>
      <trkpt lat="59.026371863347" lon="12.224163546733">
        <ele>107.2</ele>
        <time>2017-03-06T13:44:03Z</time>
      </trkpt>
      <trkpt lat="59.026344203077" lon="12.22412440326">
        <ele>107.4</ele>
        <time>2017-03-06T13:44:05Z</time>
      </trkpt>
      <trkpt lat="59.026274633307" lon="12.223767753415">
        <ele>107.8</ele>
        <time>2017-03-06T13:44:17Z</time>
      </trkpt>
      <trkpt lat="59.026255774032" lon="12.223407583172">
        <ele>107.6</ele>
        <time>2017-03-06T13:44:29Z</time>
      </trkpt>
      <trkpt lat="59.026290894193" lon="12.223057722666">
        <ele>106.2</ele>
        <time>2017-03-06T13:44:41Z</time>
      </trkpt>
      <trkpt lat="59.026342861973" lon="12.222699647898">
        <ele>105.8</ele>
        <time>2017-03-06T13:44:53Z</time>
      </trkpt>
      <trkpt lat="59.026426513335" lon="12.222380046051">
        <ele>106.8</ele>
        <time>2017-03-06T13:45:05Z</time>
      </trkpt>
      <trkpt lat="59.026483594074" lon="12.22204904482">
        <ele>108</ele>
        <time>2017-03-06T13:45:17Z</time>
      </trkpt>
      <trkpt lat="59.026572693671" lon="12.221721396349">
        <ele>108.2</ele>
        <time>2017-03-06T13:45:29Z</time>
      </trkpt>
      <trkpt lat="59.026680652543" lon="12.221402884149">
        <ele>109</ele>
        <time>2017-03-06T13:45:43Z</time>
      </trkpt>
      <trkpt lat="59.026759107127" lon="12.221078923714">
        <ele>108</ele>
        <time>2017-03-06T13:45:56Z</time>
      </trkpt>
      <trkpt lat="59.026850386018" lon="12.220753789813">
        <ele>106.6</ele>
        <time>2017-03-06T13:46:09Z</time>
      </trkpt>
      <trkpt lat="59.026871927501" lon="12.220391440276">
        <ele>106.2</ele>
        <time>2017-03-06T13:46:23Z</time>
      </trkpt>
      <trkpt lat="59.026860863393" lon="12.220031856766">
        <ele>105.2</ele>
        <time>2017-03-06T13:46:36Z</time>
      </trkpt>
      <trkpt lat="59.026871676044" lon="12.219829685338">
        <ele>104</ele>
        <time>2017-03-06T13:46:44Z</time>
      </trkpt>
      <trkpt lat="59.027031854153" lon="12.219639919122">
        <ele>103.4</ele>
        <time>2017-03-06T13:46:54Z</time>
      </trkpt>
      <trkpt lat="59.027217261781" lon="12.219589711541">
        <ele>102.2</ele>
        <time>2017-03-06T13:47:03Z</time>
      </trkpt>
      <trkpt lat="59.02740258559" lon="12.219644780624">
        <ele>100.4</ele>
        <time>2017-03-06T13:47:14Z</time>
      </trkpt>
      <trkpt lat="59.027584975734" lon="12.21969037816">
        <ele>100.8</ele>
        <time>2017-03-06T13:47:25Z</time>
      </trkpt>
      <trkpt lat="59.027775831597" lon="12.219725330683">
        <ele>100.2</ele>
        <time>2017-03-06T13:47:37Z</time>
      </trkpt>
      <trkpt lat="59.027969453487" lon="12.219759361197">
        <ele>102.4</ele>
        <time>2017-03-06T13:47:49Z</time>
      </trkpt>
      <trkpt lat="59.028158968246" lon="12.219820968162">
        <ele>103</ele>
        <time>2017-03-06T13:48:01Z</time>
      </trkpt>
      <trkpt lat="59.028336580707" lon="12.219814514099">
        <ele>105.2</ele>
        <time>2017-03-06T13:48:13Z</time>
      </trkpt>
      <trkpt lat="59.028449317262" lon="12.219541347978">
        <ele>107</ele>
        <time>2017-03-06T13:48:25Z</time>
      </trkpt>
      <trkpt lat="59.028505224535" lon="12.219199282639">
        <ele>105.6</ele>
        <time>2017-03-06T13:48:37Z</time>
      </trkpt>
      <trkpt lat="59.028572615011" lon="12.218852774893">
        <ele>104.6</ele>
        <time>2017-03-06T13:48:50Z</time>
      </trkpt>
      <trkpt lat="59.028600442919" lon="12.218489838623">
        <ele>104.6</ele>
        <time>2017-03-06T13:49:03Z</time>
      </trkpt>
      <trkpt lat="59.02875039511" lon="12.218352207825">
        <ele>103.6</ele>
        <time>2017-03-06T13:49:13Z</time>
      </trkpt>
      <trkpt lat="59.028932701435" lon="12.218368636349">
        <ele>102</ele>
        <time>2017-03-06T13:49:25Z</time>
      </trkpt>
      <trkpt lat="59.029115175398" lon="12.218370480367">
        <ele>103.4</ele>
        <time>2017-03-06T13:49:36Z</time>
      </trkpt>
      <trkpt lat="59.029306869451" lon="12.218410294392">
        <ele>106.4</ele>
        <time>2017-03-06T13:49:47Z</time>
      </trkpt>
      <trkpt lat="59.029488505224" lon="12.218473913013">
        <ele>107</ele>
        <time>2017-03-06T13:49:58Z</time>
      </trkpt>
      <trkpt lat="59.029667794065" lon="12.218527473354">
        <ele>107.6</ele>
        <time>2017-03-06T13:50:10Z</time>
      </trkpt>
      <trkpt lat="59.029856889729" lon="12.218557815832">
        <ele>107.6</ele>
        <time>2017-03-06T13:50:22Z</time>
      </trkpt>
      <trkpt lat="59.030036765303" lon="12.218559240755">
        <ele>107</ele>
        <time>2017-03-06T13:50:33Z</time>
      </trkpt>
      <trkpt lat="59.030231644478" lon="12.218602156083">
        <ele>103.8</ele>
        <time>2017-03-06T13:50:45Z</time>
      </trkpt>
      <trkpt lat="59.030422332703" lon="12.218676335898">
        <ele>101</ele>
        <time>2017-03-06T13:50:56Z</time>
      </trkpt>
      <trkpt lat="59.030608829978" lon="12.218736350302">
        <ele>98.6</ele>
        <time>2017-03-06T13:51:07Z</time>
      </trkpt>
      <trkpt lat="59.03078635862" lon="12.21880860228">
        <ele>95.4</ele>
        <time>2017-03-06T13:51:19Z</time>
      </trkpt>
      <trkpt lat="59.03096740766" lon="12.2188739811">
        <ele>96.4</ele>
        <time>2017-03-06T13:51:29Z</time>
      </trkpt>
      <trkpt lat="59.03114510394" lon="12.218990154234">
        <ele>97.4</ele>
        <time>2017-03-06T13:51:42Z</time>
      </trkpt>
      <trkpt lat="59.031297570701" lon="12.219202886856">
        <ele>101</ele>
        <time>2017-03-06T13:51:53Z</time>
      </trkpt>
      <trkpt lat="59.03133202031" lon="12.21953363663">
        <ele>103.4</ele>
        <time>2017-03-06T13:52:03Z</time>
      </trkpt>
      <trkpt lat="59.031241411971" lon="12.219862961481">
        <ele>102.6</ele>
        <time>2017-03-06T13:52:14Z</time>
      </trkpt>
      <trkpt lat="59.031131441443" lon="12.22016730827">
        <ele>99.8</ele>
        <time>2017-03-06T13:52:25Z</time>
      </trkpt>
      <trkpt lat="59.031043012398" lon="12.220503254822">
        <ele>97.8</ele>
        <time>2017-03-06T13:52:38Z</time>
      </trkpt>
      <trkpt lat="59.030907477075" lon="12.220779857522">
        <ele>101</ele>
        <time>2017-03-06T13:52:49Z</time>
      </trkpt>
      <trkpt lat="59.030864477928" lon="12.221136423548">
        <ele>103.6</ele>
        <time>2017-03-06T13:53:01Z</time>
      </trkpt>
      <trkpt lat="59.0308802359" lon="12.221204233119">
        <ele>104</ele>
        <time>2017-03-06T13:53:04Z</time>
      </trkpt>
      <trkpt lat="59.031037396525" lon="12.221375726793">
        <ele>100</ele>
        <time>2017-03-06T13:53:16Z</time>
      </trkpt>
      <trkpt lat="59.031165304319" lon="12.221632715847">
        <ele>96.4</ele>
        <time>2017-03-06T13:53:30Z</time>
      </trkpt>
      <trkpt lat="59.031321794392" lon="12.221836228379">
        <ele>95.6</ele>
        <time>2017-03-06T13:53:42Z</time>
      </trkpt>
      <trkpt lat="59.031501418509" lon="12.221792810137">
        <ele>95.8</ele>
        <time>2017-03-06T13:53:55Z</time>
      </trkpt>
      <trkpt lat="59.031638211117" lon="12.221616874056">
        <ele>96</ele>
        <time>2017-03-06T13:54:07Z</time>
      </trkpt>
      <trkpt lat="59.031697219693" lon="12.221265085713">
        <ele>97.4</ele>
        <time>2017-03-06T13:54:20Z</time>
      </trkpt>
      <trkpt lat="59.031780871055" lon="12.220938023975">
        <ele>98</ele>
        <time>2017-03-06T13:54:33Z</time>
      </trkpt>
      <trkpt lat="59.031892517963" lon="12.220642729638">
        <ele>96.8</ele>
        <time>2017-03-06T13:54:47Z</time>
      </trkpt>
      <trkpt lat="59.031962087733" lon="12.220392949018">
        <ele>96</ele>
        <time>2017-03-06T13:54:57Z</time>
      </trkpt>
      <trkpt lat="59.031989496546" lon="12.220394122484">
        <ele>95.8</ele>
        <time>2017-03-06T13:54:59Z</time>
      </trkpt>
      <trkpt lat="59.032141963307" lon="12.220595707179">
        <ele>94.4</ele>
        <time>2017-03-06T13:55:11Z</time>
      </trkpt>
      <trkpt lat="59.032312870248" lon="12.220755214736">
        <ele>92.6</ele>
        <time>2017-03-06T13:55:24Z</time>
      </trkpt>
      <trkpt lat="59.032476736393" lon="12.220905669841">
        <ele>93</ele>
        <time>2017-03-06T13:55:36Z</time>
      </trkpt>
      <trkpt lat="59.032623252005" lon="12.221116390807">
        <ele>95.6</ele>
        <time>2017-03-06T13:55:49Z</time>
      </trkpt>
      <trkpt lat="59.032713608887" lon="12.221410092583">
        <ele>95.8</ele>
        <time>2017-03-06T13:56:03Z</time>
      </trkpt>
      <trkpt lat="59.03266641879" lon="12.221759198718">
        <ele>95.6</ele>
        <time>2017-03-06T13:56:16Z</time>
      </trkpt>
      <trkpt lat="59.03250464812" lon="12.221898422077">
        <ele>90.2</ele>
        <time>2017-03-06T13:56:27Z</time>
      </trkpt>
      <trkpt lat="59.032322844709" lon="12.221946282726">
        <ele>89.2</ele>
        <time>2017-03-06T13:56:41Z</time>
      </trkpt>
      <trkpt lat="59.032136095977" lon="12.221966818381">
        <ele>92</ele>
        <time>2017-03-06T13:56:56Z</time>
      </trkpt>
      <trkpt lat="59.031953370557" lon="12.22199372428">
        <ele>88.4</ele>
        <time>2017-03-06T13:57:10Z</time>
      </trkpt>
      <trkpt lat="59.031765029264" lon="12.221990203882">
        <ele>88.4</ele>
        <time>2017-03-06T13:57:22Z</time>
      </trkpt>
      <trkpt lat="59.031569814813" lon="12.221949216391">
        <ele>94.2</ele>
        <time>2017-03-06T13:57:34Z</time>
      </trkpt>
      <trkpt lat="59.031515081006" lon="12.221928764555">
        <ele>94.8</ele>
        <time>2017-03-06T13:57:38Z</time>
      </trkpt>
      <trkpt lat="59.03141332474" lon="12.22223009386">
        <ele>95.2</ele>
        <time>2017-03-06T13:57:52Z</time>
      </trkpt>
      <trkpt lat="59.031310646465" lon="12.222510384596">
        <ele>92.8</ele>
        <time>2017-03-06T13:58:04Z</time>
      </trkpt>
      <trkpt lat="59.031256499391" lon="12.222838200705">
        <ele>90.4</ele>
        <time>2017-03-06T13:58:16Z</time>
      </trkpt>
      <trkpt lat="59.031136302945" lon="12.223125783694">
        <ele>88.6</ele>
        <time>2017-03-06T13:58:28Z</time>
      </trkpt>
      <trkpt lat="59.031028092616" lon="12.223409930104">
        <ele>88.4</ele>
        <time>2017-03-06T13:58:39Z</time>
      </trkpt>
      <trkpt lat="59.030816952555" lon="12.223953244862">
        <ele>88.6</ele>
        <time>2017-03-06T13:59:01Z</time>
      </trkpt>
      <trkpt lat="59.030710586244" lon="12.22424258805">
        <ele>88.4</ele>
        <time>2017-03-06T13:59:13Z</time>
      </trkpt>
      <trkpt lat="59.030599358431" lon="12.224536289826">
        <ele>89.2</ele>
        <time>2017-03-06T13:59:25Z</time>
      </trkpt>
      <trkpt lat="59.030474468121" lon="12.224792775966">
        <ele>88.8</ele>
        <time>2017-03-06T13:59:38Z</time>
      </trkpt>
      <trkpt lat="59.030351254191" lon="12.225063511336">
        <ele>90</ele>
        <time>2017-03-06T13:59:50Z</time>
      </trkpt>
      <trkpt lat="59.030244636423" lon="12.225368025763">
        <ele>91.4</ele>
        <time>2017-03-06T14:00:03Z</time>
      </trkpt>
      <trkpt lat="59.030124356158" lon="12.225653513277">
        <ele>88.8</ele>
        <time>2017-03-06T14:00:16Z</time>
      </trkpt>
      <trkpt lat="59.030071550188" lon="12.225978814816">
        <ele>88.2</ele>
        <time>2017-03-06T14:00:28Z</time>
      </trkpt>
      <trkpt lat="59.030068448885" lon="12.226348540425">
        <ele>88.8</ele>
        <time>2017-03-06T14:00:40Z</time>
      </trkpt>
      <trkpt lat="59.030044811927" lon="12.226706363736">
        <ele>90.6</ele>
        <time>2017-03-06T14:00:51Z</time>
      </trkpt>
      <trkpt lat="59.030011368146" lon="12.227064270866">
        <ele>91</ele>
        <time>2017-03-06T14:01:03Z</time>
      </trkpt>
      <trkpt lat="59.029963423678" lon="12.227409353689">
        <ele>88.6</ele>
        <time>2017-03-06T14:01:15Z</time>
      </trkpt>
      <trkpt lat="59.029922352368" lon="12.227770362122">
        <ele>87.6</ele>
        <time>2017-03-06T14:01:27Z</time>
      </trkpt>
      <trkpt lat="59.029866193638" lon="12.228111086357">
        <ele>85.6</ele>
        <time>2017-03-06T14:01:40Z</time>
      </trkpt>
      <trkpt lat="59.029769382693" lon="12.22841845063">
        <ele>88.6</ele>
        <time>2017-03-06T14:01:52Z</time>
      </trkpt>
      <trkpt lat="59.029641055804" lon="12.228685330326">
        <ele>86.4</ele>
        <time>2017-03-06T14:02:04Z</time>
      </trkpt>
      <trkpt lat="59.029460844954" lon="12.228819608364">
        <ele>89.2</ele>
        <time>2017-03-06T14:02:17Z</time>
      </trkpt>
      <trkpt lat="59.029281388475" lon="12.228909713789">
        <ele>92</ele>
        <time>2017-03-06T14:02:31Z</time>
      </trkpt>
      <trkpt lat="59.029093801553" lon="12.228955646601">
        <ele>94.8</ele>
        <time>2017-03-06T14:02:45Z</time>
      </trkpt>
      <trkpt lat="59.028933539625" lon="12.229150609595">
        <ele>95</ele>
        <time>2017-03-06T14:02:56Z</time>
      </trkpt>
      <trkpt lat="59.028753412594" lon="12.229253204051">
        <ele>93.8</ele>
        <time>2017-03-06T14:03:08Z</time>
      </trkpt>
      <trkpt lat="59.028565238939" lon="12.22929352099">
        <ele>94</ele>
        <time>2017-03-06T14:03:21Z</time>
      </trkpt>
      <trkpt lat="59.028382681157" lon="12.229314056645">
        <ele>94.2</ele>
        <time>2017-03-06T14:03:33Z</time>
      </trkpt>
      <trkpt lat="59.028196519158" lon="12.229199224615">
        <ele>97.2</ele>
        <time>2017-03-06T14:03:45Z</time>
      </trkpt>
      <trkpt lat="59.028023935837" lon="12.229023204715">
        <ele>95.4</ele>
        <time>2017-03-06T14:03:57Z</time>
      </trkpt>
      <trkpt lat="59.027863087176" lon="12.228865541176">
        <ele>92.8</ele>
        <time>2017-03-06T14:04:09Z</time>
      </trkpt>
      <trkpt lat="59.027686480543" lon="12.22879898889">
        <ele>93.4</ele>
        <time>2017-03-06T14:04:21Z</time>
      </trkpt>
      <trkpt lat="59.027601152801" lon="12.229085817508">
        <ele>91.8</ele>
        <time>2017-03-06T14:04:33Z</time>
      </trkpt>
      <trkpt lat="59.027654545504" lon="12.229403491518">
        <ele>90.8</ele>
        <time>2017-03-06T14:04:47Z</time>
      </trkpt>
      <trkpt lat="59.027813885423" lon="12.229570375147">
        <ele>88.4</ele>
        <time>2017-03-06T14:04:59Z</time>
      </trkpt>
      <trkpt lat="59.027963502338" lon="12.229800374483">
        <ele>91.4</ele>
        <time>2017-03-06T14:05:11Z</time>
      </trkpt>
      <trkpt lat="59.028084117879" lon="12.230068176188">
        <ele>92.4</ele>
        <time>2017-03-06T14:05:23Z</time>
      </trkpt>
      <trkpt lat="59.028210768388" lon="12.230341593766">
        <ele>99</ele>
        <time>2017-03-06T14:05:35Z</time>
      </trkpt>
      <trkpt lat="59.028321409468" lon="12.230631104592">
        <ele>98.6</ele>
        <time>2017-03-06T14:05:45Z</time>
      </trkpt>
      <trkpt lat="59.028441522095" lon="12.23089194932">
        <ele>96.4</ele>
        <time>2017-03-06T14:05:56Z</time>
      </trkpt>
      <trkpt lat="59.028583343843" lon="12.231141897578">
        <ele>96.2</ele>
        <time>2017-03-06T14:06:08Z</time>
      </trkpt>
      <trkpt lat="59.028696415674" lon="12.231444232711">
        <ele>98.4</ele>
        <time>2017-03-06T14:06:20Z</time>
      </trkpt>
      <trkpt lat="59.028789370945" lon="12.231758973056">
        <ele>97.8</ele>
        <time>2017-03-06T14:06:32Z</time>
      </trkpt>
      <trkpt lat="59.028861790561" lon="12.232091315391">
        <ele>96.6</ele>
        <time>2017-03-06T14:06:44Z</time>
      </trkpt>
      <trkpt lat="59.028844691485" lon="12.23214755794">
        <ele>96</ele>
        <time>2017-03-06T14:06:46Z</time>
      </trkpt>
      <trkpt lat="59.028738408993" lon="12.232278231761">
        <ele>94.4</ele>
        <time>2017-03-06T14:06:53Z</time>
      </trkpt>
      <trkpt lat="59.028688704326" lon="12.232505045975">
        <ele>94.4</ele>
        <time>2017-03-06T14:07:01Z</time>
      </trkpt>
      <trkpt lat="59.02850145268" lon="12.232615351779">
        <ele>94</ele>
        <time>2017-03-06T14:07:13Z</time>
      </trkpt>
      <trkpt lat="59.028321744744" lon="12.232698584046">
        <ele>95</ele>
        <time>2017-03-06T14:07:24Z</time>
      </trkpt>
      <trkpt lat="59.028135666564" lon="12.232795227353">
        <ele>93</ele>
        <time>2017-03-06T14:07:36Z</time>
      </trkpt>
      <trkpt lat="59.027946822357" lon="12.232891619203">
        <ele>94.6</ele>
        <time>2017-03-06T14:07:47Z</time>
      </trkpt>
      <trkpt lat="59.027769545172" lon="12.232953561444">
        <ele>93.8</ele>
        <time>2017-03-06T14:08:00Z</time>
      </trkpt>
      <trkpt lat="59.027586903571" lon="12.232991279994">
        <ele>91</ele>
        <time>2017-03-06T14:08:13Z</time>
      </trkpt>
      <trkpt lat="59.027396634441" lon="12.23298742432">
        <ele>92</ele>
        <time>2017-03-06T14:08:25Z</time>
      </trkpt>
      <trkpt lat="59.027213406107" lon="12.233024388499">
        <ele>91.2</ele>
        <time>2017-03-06T14:08:37Z</time>
      </trkpt>
      <trkpt lat="59.027021460597" lon="12.233061520316">
        <ele>90.6</ele>
        <time>2017-03-06T14:08:49Z</time>
      </trkpt>
      <trkpt lat="59.026829515087" lon="12.233091276061">
        <ele>91</ele>
        <time>2017-03-06T14:09:02Z</time>
      </trkpt>
      <trkpt lat="59.026675455765" lon="12.233173921595">
        <ele>93.4</ele>
        <time>2017-03-06T14:09:13Z</time>
      </trkpt>
      <trkpt lat="59.026591552946" lon="12.233078200297">
        <ele>92.8</ele>
        <time>2017-03-06T14:09:19Z</time>
      </trkpt>
      <trkpt lat="59.026418885806" lon="12.233243156089">
        <ele>90</ele>
        <time>2017-03-06T14:09:32Z</time>
      </trkpt>
      <trkpt lat="59.0262785728" lon="12.233496457107">
        <ele>89</ele>
        <time>2017-03-06T14:09:45Z</time>
      </trkpt>
      <trkpt lat="59.026127028048" lon="12.233721259665">
        <ele>89.4</ele>
        <time>2017-03-06T14:09:57Z</time>
      </trkpt>
      <trkpt lat="59.025981182988" lon="12.233947403327">
        <ele>90.8</ele>
        <time>2017-03-06T14:10:08Z</time>
      </trkpt>
      <trkpt lat="59.025819077042" lon="12.234104983047">
        <ele>91.8</ele>
        <time>2017-03-06T14:10:20Z</time>
      </trkpt>
      <trkpt lat="59.025669795403" lon="12.233901638153">
        <ele>92.2</ele>
        <time>2017-03-06T14:10:31Z</time>
      </trkpt>
      <trkpt lat="59.025532248424" lon="12.233637273027">
        <ele>91.2</ele>
        <time>2017-03-06T14:10:43Z</time>
      </trkpt>
      <trkpt lat="59.025440298981" lon="12.233459744385">
        <ele>92</ele>
        <time>2017-03-06T14:10:54Z</time>
      </trkpt>
      <trkpt lat="59.025414147453" lon="12.233111308802">
        <ele>90.4</ele>
        <time>2017-03-06T14:11:14Z</time>
      </trkpt>
      <trkpt lat="59.025424624828" lon="12.232755329509">
        <ele>90.2</ele>
        <time>2017-03-06T14:11:26Z</time>
      </trkpt>
      <trkpt lat="59.025499307557" lon="12.23241158779">
        <ele>89.8</ele>
        <time>2017-03-06T14:11:39Z</time>
      </trkpt>
      <trkpt lat="59.025605590049" lon="12.232121993145">
        <ele>87.4</ele>
        <time>2017-03-06T14:11:51Z</time>
      </trkpt>
      <trkpt lat="59.025730228902" lon="12.231859472037">
        <ele>87.8</ele>
        <time>2017-03-06T14:12:02Z</time>
      </trkpt>
      <trkpt lat="59.025876409238" lon="12.231631065262">
        <ele>88.8</ele>
        <time>2017-03-06T14:12:14Z</time>
      </trkpt>
      <trkpt lat="59.026047148541" lon="12.231483376184">
        <ele>88.2</ele>
        <time>2017-03-06T14:12:26Z</time>
      </trkpt>
      <trkpt lat="59.026219312767" lon="12.2313462483">
        <ele>88.8</ele>
        <time>2017-03-06T14:12:38Z</time>
      </trkpt>
      <trkpt lat="59.02640513949" lon="12.231259663273">
        <ele>87.2</ele>
        <time>2017-03-06T14:12:51Z</time>
      </trkpt>
      <trkpt lat="59.026590630937" lon="12.231209204235">
        <ele>87.6</ele>
        <time>2017-03-06T14:13:04Z</time>
      </trkpt>
      <trkpt lat="59.026738487653" lon="12.230991023378">
        <ele>87.4</ele>
        <time>2017-03-06T14:13:17Z</time>
      </trkpt>
      <trkpt lat="59.026877208098" lon="12.23075029521">
        <ele>88.2</ele>
        <time>2017-03-06T14:13:29Z</time>
      </trkpt>
      <trkpt lat="59.027014671258" lon="12.230512584526">
        <ele>89.6</ele>
        <time>2017-03-06T14:13:41Z</time>
      </trkpt>
      <trkpt lat="59.027146686183" lon="12.230245034278">
        <ele>88.8</ele>
        <time>2017-03-06T14:13:54Z</time>
      </trkpt>
      <trkpt lat="59.027292615062" lon="12.230012436553">
        <ele>89.8</ele>
        <time>2017-03-06T14:14:07Z</time>
      </trkpt>
      <trkpt lat="59.027412727689" lon="12.229753519662">
        <ele>90.2</ele>
        <time>2017-03-06T14:14:19Z</time>
      </trkpt>
      <trkpt lat="59.027492020463" lon="12.229442634991">
        <ele>91</ele>
        <time>2017-03-06T14:14:32Z</time>
      </trkpt>
      <trkpt lat="59.027561338776" lon="12.228969644374">
        <ele>89.6</ele>
        <time>2017-03-06T14:14:51Z</time>
      </trkpt>
      <trkpt lat="59.027556225817" lon="12.228782476547">
        <ele>90</ele>
        <time>2017-03-06T14:14:58Z</time>
      </trkpt>
      <trkpt lat="59.027376098786" lon="12.228706536533">
        <ele>88.2</ele>
        <time>2017-03-06T14:15:11Z</time>
      </trkpt>
      <trkpt lat="59.027188930959" lon="12.228663285929">
        <ele>88.4</ele>
        <time>2017-03-06T14:15:25Z</time>
      </trkpt>
      <trkpt lat="59.027002266046" lon="12.228584579888">
        <ele>88.6</ele>
        <time>2017-03-06T14:15:38Z</time>
      </trkpt>
      <trkpt lat="59.026822055196" lon="12.228498833051">
        <ele>89.6</ele>
        <time>2017-03-06T14:15:51Z</time>
      </trkpt>
      <trkpt lat="59.02664905278" lon="12.228440662665">
        <ele>91.2</ele>
        <time>2017-03-06T14:16:05Z</time>
      </trkpt>
      <trkpt lat="59.026663888743" lon="12.228252405191">
        <ele>89.2</ele>
        <time>2017-03-06T14:16:13Z</time>
      </trkpt>
      <trkpt lat="59.026644107459" lon="12.227908747291">
        <ele>92.8</ele>
        <time>2017-03-06T14:16:30Z</time>
      </trkpt>
      <trkpt lat="59.026668079693" lon="12.227559557337">
        <ele>90.8</ele>
        <time>2017-03-06T14:16:42Z</time>
      </trkpt>
      <trkpt lat="59.02666246382" lon="12.227429051154">
        <ele>91.4</ele>
        <time>2017-03-06T14:16:47Z</time>
      </trkpt>
      <trkpt lat="59.0266138488" lon="12.227325115594">
        <ele>91.8</ele>
        <time>2017-03-06T14:16:54Z</time>
      </trkpt>
      <trkpt lat="59.026571771662" lon="12.227275075651">
        <ele>93.4</ele>
        <time>2017-03-06T14:16:59Z</time>
      </trkpt>
      <trkpt lat="59.026555343138" lon="12.227259401498">
        <ele>94.2</ele>
        <time>2017-03-06T14:17:01Z</time>
      </trkpt>
      <trkpt lat="59.026539333709" lon="12.227245152268">
        <ele>94.8</ele>
        <time>2017-03-06T14:17:03Z</time>
      </trkpt>
      <trkpt lat="59.02652835342" lon="12.22721648617">
        <ele>95.4</ele>
        <time>2017-03-06T14:17:05Z</time>
      </trkpt>
      <trkpt lat="59.026499771141" lon="12.227173067928">
        <ele>95.6</ele>
        <time>2017-03-06T14:17:08Z</time>
      </trkpt>
      <trkpt lat="59.026499268227" lon="12.226818010644">
        <ele>96.6</ele>
        <time>2017-03-06T14:17:21Z</time>
      </trkpt>
      <trkpt lat="59.026503794453" lon="12.226464294464">
        <ele>96.4</ele>
        <time>2017-03-06T14:17:34Z</time>
      </trkpt>
      <trkpt lat="59.026476050364" lon="12.226094904131">
        <ele>97.6</ele>
        <time>2017-03-06T14:17:48Z</time>
      </trkpt>
      <trkpt lat="59.026545201039" lon="12.225769267316">
        <ele>98.4</ele>
        <time>2017-03-06T14:18:02Z</time>
      </trkpt>
      <trkpt lat="59.026596079172" lon="12.225433739859">
        <ele>101</ele>
        <time>2017-03-06T14:18:15Z</time>
      </trkpt>
      <trkpt lat="59.026671516272" lon="12.225098799135">
        <ele>104.4</ele>
        <time>2017-03-06T14:18:28Z</time>
      </trkpt>
      <trkpt lat="59.026736643635" lon="12.224747932801">
        <ele>103</ele>
        <time>2017-03-06T14:18:42Z</time>
      </trkpt>
      <trkpt lat="59.02682423449" lon="12.224433024818">
        <ele>104</ele>
        <time>2017-03-06T14:18:55Z</time>
      </trkpt>
      <trkpt lat="59.026868574741" lon="12.224286844482">
        <ele>104.4</ele>
        <time>2017-03-06T14:19:01Z</time>
      </trkpt>
      <trkpt lat="59.027046103383" lon="12.224221214205">
        <ele>105</ele>
        <time>2017-03-06T14:19:14Z</time>
      </trkpt>
      <trkpt lat="59.027091868557" lon="12.224220962748">
        <ele>105</ele>
        <time>2017-03-06T14:19:18Z</time>
      </trkpt>
    </trkseg>
  </trk>
</gpx>